createdAt,value
2018-11-06T00:01:40.009Z,63.70
2018-11-06T00:04:11.040Z,63.90
2018-11-06T00:06:42.310Z,64.20
2018-11-06T00:09:13.468Z,64.50
2018-11-06T00:11:44.687Z,64.50
2018-11-06T00:14:15.689Z,64.40
2018-11-06T00:16:46.229Z,63.70
2018-11-06T00:19:18.367Z,63.30
2018-11-06T00:21:49.313Z,62.20
2018-11-06T00:24:21.120Z,62.10
2018-11-06T00:26:51.976Z,62.00
2018-11-06T00:29:22.794Z,62.30
2018-11-06T00:31:53.904Z,62.80
2018-11-06T00:34:24.614Z,63.10
2018-11-06T00:37:16.110Z,63.60
2018-11-06T00:39:57.619Z,64.10
2018-11-06T00:42:33.959Z,64.40
2018-11-06T00:45:12.761Z,64.70
2018-11-06T00:47:50.415Z,64.70
2018-11-06T00:50:23.109Z,64.50
2018-11-06T00:53:06.027Z,64.40
2018-11-06T00:55:40.272Z,64.20
2018-11-06T00:58:13.544Z,64.00
2018-11-06T01:00:48.548Z,64.10
2018-11-06T01:03:20.140Z,64.20
2018-11-06T01:05:51.902Z,64.80
2018-11-06T01:08:22.758Z,64.90
2018-11-06T01:10:53.993Z,65.20
2018-11-06T01:13:24.630Z,65.40
2018-11-06T01:15:55.530Z,65.70
2018-11-06T01:18:26.005Z,65.80
2018-11-06T01:20:56.766Z,66.10
2018-11-06T01:23:28.198Z,66.10
2018-11-06T01:25:59.950Z,65.90
2018-11-06T01:28:31.695Z,66.10
2018-11-06T01:31:13.717Z,66.20
2018-11-06T01:33:45.874Z,66.10
2018-11-06T01:36:16.403Z,65.30
2018-11-06T01:38:52.892Z,64.10
2018-11-06T01:41:23.530Z,63.80
2018-11-06T01:43:54.625Z,63.60
2018-11-06T01:46:25.233Z,63.60
2018-11-06T01:48:55.736Z,63.90
2018-11-06T01:51:26.262Z,64.60
2018-11-06T01:53:56.707Z,65.20
2018-11-06T01:56:29.994Z,65.60
2018-11-06T01:59:01.356Z,65.60
2018-11-06T02:01:31.849Z,65.50
2018-11-06T02:04:03.718Z,65.50
2018-11-06T02:06:34.244Z,65.00
2018-11-06T02:09:07.198Z,64.60
2018-11-06T02:11:37.812Z,64.20
2018-11-06T02:14:08.405Z,63.30
2018-11-06T02:16:39.064Z,62.60
2018-11-06T02:19:09.827Z,62.20
2018-11-06T02:21:40.666Z,62.30
2018-11-06T02:24:12.386Z,62.30
2018-11-06T02:26:43.067Z,62.90
2018-11-06T02:29:22.170Z,63.60
2018-11-06T02:32:00.102Z,64.00
2018-11-06T02:34:33.305Z,63.90
2018-11-06T02:37:05.342Z,63.20
2018-11-06T02:39:41.009Z,62.80
2018-11-06T02:42:17.720Z,62.70
2018-11-06T02:44:48.680Z,61.70
2018-11-06T02:47:20.422Z,61.90
2018-11-06T02:49:51.648Z,62.40
2018-11-06T02:52:23.946Z,62.90
2018-11-06T02:54:57.117Z,63.30
2018-11-06T02:57:33.778Z,63.00
2018-11-06T03:00:12.123Z,62.70
2018-11-06T03:02:46.003Z,62.60
2018-11-06T03:05:21.743Z,62.20
2018-11-06T03:07:54.980Z,63.00
2018-11-06T03:10:26.543Z,64.50
2018-11-06T03:12:59.758Z,64.70
2018-11-06T03:15:32.704Z,64.30
2018-11-06T03:18:04.887Z,64.10
2018-11-06T03:20:36.469Z,63.80
2018-11-06T03:23:11.471Z,63.20
2018-11-06T03:25:45.855Z,63.40
2018-11-06T03:28:17.096Z,63.20
2018-11-06T03:30:48.579Z,63.00
2018-11-06T03:33:21.166Z,63.00
2018-11-06T03:35:52.804Z,63.00
2018-11-06T03:38:25.809Z,63.30
2018-11-06T03:40:57.910Z,64.10
2018-11-06T03:43:31.686Z,64.90
2018-11-06T03:46:03.265Z,65.50
2018-11-06T03:48:35.127Z,65.30
2018-11-06T03:51:08.760Z,65.10
2018-11-06T03:53:40.588Z,65.20
2018-11-06T03:56:11.785Z,64.20
2018-11-06T03:58:44.292Z,63.40
2018-11-06T04:01:16.164Z,63.10
2018-11-06T04:03:49.181Z,63.20
2018-11-06T04:06:21.547Z,63.40
2018-11-06T04:08:53.551Z,63.50
2018-11-06T04:11:25.289Z,63.50
2018-11-06T04:13:56.471Z,63.50
2018-11-06T04:16:28.822Z,63.60
2018-11-06T04:18:59.930Z,63.50
2018-11-06T04:21:35.948Z,63.50
2018-11-06T04:24:10.966Z,63.60
2018-11-06T04:26:42.569Z,64.10
2018-11-06T04:29:14.312Z,64.50
2018-11-06T04:31:45.788Z,64.90
2018-11-06T04:34:17.895Z,65.00
2018-11-06T04:36:50.208Z,64.80
2018-11-06T04:39:21.618Z,64.20
2018-11-06T04:41:52.071Z,64.60
2018-11-06T04:44:23.034Z,64.50
2018-11-06T04:46:53.374Z,64.20
2018-11-06T04:49:25.550Z,63.90
2018-11-06T04:51:56.265Z,64.10
2018-11-06T04:54:29.132Z,64.20
2018-11-06T04:57:00.520Z,64.30
2018-11-06T04:59:32.183Z,64.10
2018-11-06T05:02:04.870Z,64.30
2018-11-06T05:04:38.718Z,64.50
2018-11-06T05:07:09.056Z,64.40
2018-11-06T05:09:39.674Z,64.40
2018-11-06T05:12:10.872Z,64.40
2018-11-06T05:14:41.179Z,64.10
2018-11-06T05:17:11.579Z,63.70
2018-11-06T05:19:42.809Z,63.80
2018-11-06T05:22:13.089Z,63.90
2018-11-06T05:24:43.399Z,63.90
2018-11-06T05:27:13.871Z,63.90
2018-11-06T05:29:44.258Z,64.00
2018-11-06T05:32:14.509Z,64.20
2018-11-06T05:34:44.864Z,64.20
2018-11-06T05:37:15.080Z,64.00
2018-11-06T05:40:02.159Z,64.10
2018-11-06T05:42:32.942Z,64.20
2018-11-06T05:45:03.286Z,64.00
2018-11-06T05:47:33.603Z,64.20
2018-11-06T05:50:04.046Z,64.30
2018-11-06T05:52:37.231Z,65.00
2018-11-06T05:55:11.699Z,64.10
2018-11-06T05:57:43.850Z,64.10
2018-11-06T06:00:18.803Z,64.10
2018-11-06T06:02:52.079Z,64.00
2018-11-06T06:05:27.556Z,63.80
2018-11-06T06:08:01.282Z,63.80
2018-11-06T06:10:33.909Z,63.70
2018-11-06T06:13:08.400Z,64.60
2018-11-06T06:15:46.137Z,63.70
2018-11-06T06:18:19.438Z,63.70
2018-11-06T06:20:53.766Z,63.90
2018-11-06T06:23:27.424Z,64.00
2018-11-06T06:26:01.190Z,64.00
2018-11-06T06:28:35.211Z,64.00
2018-11-06T06:31:08.260Z,63.80
2018-11-06T06:33:44.737Z,63.60
2018-11-06T06:36:19.326Z,63.50
2018-11-06T06:38:54.459Z,63.30
2018-11-06T06:41:29.334Z,63.50
2018-11-06T06:44:04.210Z,63.40
2018-11-06T06:46:38.105Z,63.80
2018-11-06T06:49:14.058Z,63.60
2018-11-06T06:51:44.827Z,63.80
2018-11-06T06:54:15.389Z,63.90
2018-11-06T06:56:45.599Z,64.20
2018-11-06T06:59:15.886Z,64.50
2018-11-06T07:01:46.454Z,64.10
2018-11-06T07:04:18.378Z,64.40
2018-11-06T07:06:49.527Z,64.10
2018-11-06T07:09:19.814Z,64.10
2018-11-06T07:11:50.070Z,64.50
2018-11-06T07:14:20.475Z,64.00
2018-11-06T07:16:50.928Z,63.70
2018-11-06T07:19:21.451Z,63.40
2018-11-06T07:21:52.947Z,63.10
2018-11-06T07:24:23.270Z,63.00
2018-11-06T07:26:53.992Z,62.70
2018-11-06T07:29:24.785Z,62.30
2018-11-06T07:32:03.243Z,62.30
2018-11-06T07:34:34.341Z,62.70
2018-11-06T07:37:07.002Z,62.20
2018-11-06T07:39:40.063Z,62.00
2018-11-06T07:42:12.550Z,60.90
2018-11-06T07:44:45.987Z,59.70
2018-11-06T07:47:20.757Z,59.40
2018-11-06T07:49:53.585Z,58.90
2018-11-06T07:52:26.888Z,59.20
2018-11-06T07:55:01.257Z,58.60
2018-11-06T07:57:34.432Z,58.00
2018-11-06T08:00:07.822Z,56.90
2018-11-06T08:02:38.774Z,55.70
2018-11-06T08:05:09.086Z,54.40
2018-11-06T08:07:39.892Z,53.70
2018-11-06T08:10:11.038Z,53.90
2018-11-06T08:12:43.051Z,53.90
2018-11-06T08:15:13.981Z,53.60
2018-11-06T08:17:45.230Z,53.40
2018-11-06T08:20:15.853Z,52.90
2018-11-06T08:22:46.231Z,52.80
2018-11-06T08:25:17.298Z,52.80
2018-11-06T08:27:47.765Z,52.90
2018-11-06T08:30:18.263Z,53.10
2018-11-06T08:32:48.860Z,52.90
2018-11-06T08:35:20.661Z,52.70
2018-11-06T08:37:52.527Z,52.10
2018-11-06T08:40:23.568Z,51.30
2018-11-06T08:42:57.021Z,49.90
2018-11-06T08:45:29.183Z,48.80
2018-11-06T08:47:59.952Z,47.60
2018-11-06T08:50:33.779Z,46.50
2018-11-06T08:53:04.159Z,45.50
2018-11-06T08:55:34.474Z,44.20
2018-11-06T08:58:04.834Z,43.00
2018-11-06T09:00:35.470Z,42.70
2018-11-06T09:03:06.214Z,41.40
2018-11-06T09:08:15.894Z,38.20
2018-11-06T09:10:47.422Z,37.70
2018-11-06T09:13:18.569Z,36.80
2018-11-06T09:15:49.194Z,35.70
2018-11-06T09:18:19.964Z,35.60
2018-11-06T09:20:51.122Z,36.10
2018-11-06T09:23:22.882Z,37.30
2018-11-06T09:25:55.213Z,37.90
2018-11-06T09:28:26.651Z,39.10
2018-11-06T09:30:57.069Z,39.40
2018-11-06T09:33:27.350Z,39.60
2018-11-06T09:36:00.041Z,38.70
2018-11-06T09:38:31.323Z,37.80
2018-11-06T09:41:02.603Z,36.50
2018-11-06T09:43:33.467Z,36.40
2018-11-06T09:46:04.275Z,35.80
2018-11-06T09:48:35.409Z,36.30
2018-11-06T09:51:06.821Z,36.40
2018-11-06T09:53:40.542Z,36.60
2018-11-06T09:56:11.783Z,36.70
2018-11-06T09:58:42.469Z,37.20
2018-11-06T10:01:13.049Z,36.80
2018-11-06T10:03:43.754Z,36.60
2018-11-06T10:06:14.348Z,36.20
2018-11-06T10:08:45.334Z,37.10
2018-11-06T10:11:15.766Z,37.10
2018-11-06T10:13:46.438Z,36.00
2018-11-06T10:16:16.982Z,35.00
2018-11-06T10:18:47.514Z,33.00
2018-11-06T10:21:19.151Z,31.70
2018-11-06T10:23:50.860Z,31.20
2018-11-06T10:26:22.816Z,31.60
2018-11-06T10:28:53.577Z,32.40
2018-11-06T10:31:25.518Z,32.80
2018-11-06T10:33:56.356Z,32.30
2018-11-06T10:36:27.177Z,33.40
2018-11-06T10:38:58.026Z,33.80
2018-11-06T10:41:29.437Z,34.60
2018-11-06T10:43:59.989Z,36.40
2018-11-06T10:46:30.503Z,37.70
2018-11-06T10:49:00.818Z,38.40
2018-11-06T10:51:31.848Z,38.80
2018-11-06T10:54:02.231Z,39.50
2018-11-06T10:56:32.831Z,40.70
2018-11-06T10:59:03.159Z,41.20
2018-11-06T11:01:39.325Z,41.80
2018-11-06T11:04:16.606Z,42.80
2018-11-06T11:06:46.974Z,42.50
2018-11-06T11:09:17.462Z,42.80
2018-11-06T11:11:47.925Z,43.60
2018-11-06T11:14:18.598Z,43.40
2018-11-06T11:16:49.021Z,43.30
2018-11-06T11:19:19.391Z,43.50
2018-11-06T11:21:49.880Z,43.30
2018-11-06T11:24:20.317Z,42.40
2018-11-06T11:26:50.863Z,41.40
2018-11-06T11:29:21.362Z,40.00
2018-11-06T11:31:52.245Z,38.50
2018-11-06T11:34:23.071Z,37.10
2018-11-06T11:36:54.106Z,35.50
2018-11-06T11:39:24.688Z,34.20
2018-11-06T11:41:55.628Z,32.90
2018-11-06T11:44:26.219Z,32.70
2018-11-06T11:46:56.671Z,31.80
2018-11-06T11:49:27.230Z,30.50
2018-11-06T11:51:57.688Z,30.70
2018-11-06T11:54:28.998Z,30.90
2018-11-06T11:57:00.283Z,30.80
2018-11-06T11:59:31.039Z,31.50
2018-11-06T12:02:01.871Z,32.40
2018-11-06T12:04:32.501Z,31.80
2018-11-06T12:07:02.770Z,33.30
2018-11-06T12:09:33.101Z,33.00
2018-11-06T12:12:03.457Z,32.90
2018-11-06T12:14:34.100Z,33.30
2018-11-06T12:17:05.818Z,33.40
2018-11-06T12:19:36.181Z,33.30
2018-11-06T12:22:07.609Z,33.50
2018-11-06T12:24:38.732Z,33.90
2018-11-06T12:27:09.658Z,33.80
2018-11-06T12:29:40.496Z,33.20
2018-11-06T12:32:11.695Z,32.60
2018-11-06T12:34:43.696Z,32.40
2018-11-06T12:37:17.223Z,33.10
2018-11-06T12:39:48.696Z,33.10
2018-11-06T12:42:19.179Z,32.90
2018-11-06T12:44:49.524Z,33.30
2018-11-06T12:47:19.921Z,33.10
2018-11-06T12:50:01.136Z,33.30
2018-11-06T12:52:39.003Z,33.60
2018-11-06T12:55:19.878Z,33.90
2018-11-06T12:57:50.510Z,33.40
2018-11-06T13:00:21.546Z,33.20
2018-11-06T13:02:52.982Z,33.60
2018-11-06T13:05:23.324Z,33.50
2018-11-06T13:07:53.895Z,32.90
2018-11-06T13:10:25.050Z,32.70
2018-11-06T13:12:55.960Z,33.00
2018-11-06T13:15:28.359Z,32.90
2018-11-06T13:17:59.814Z,33.60
2018-11-06T13:20:30.950Z,33.50
2018-11-06T13:23:02.452Z,33.50
2018-11-06T13:25:33.672Z,33.70
2018-11-06T13:28:04.225Z,33.90
2018-11-06T13:30:34.639Z,34.10
2018-11-06T13:33:05.473Z,34.10
2018-11-06T13:35:37.361Z,34.00
2018-11-06T13:38:08.758Z,34.60
2018-11-06T13:40:42.236Z,34.60
2018-11-06T13:43:12.567Z,35.10
2018-11-06T13:45:43.776Z,35.20
2018-11-06T13:48:14.699Z,35.40
2018-11-06T13:50:53.646Z,36.00
2018-11-06T13:53:26.944Z,36.10
2018-11-06T13:55:58.473Z,35.50
2018-11-06T13:58:29.597Z,34.30
2018-11-06T14:01:01.561Z,32.30
2018-11-06T14:03:32.937Z,30.70
2018-11-06T14:06:04.158Z,30.80
2018-11-06T14:08:35.742Z,31.00
2018-11-06T14:11:08.499Z,31.80
2018-11-06T14:13:40.683Z,32.70
2018-11-06T14:16:11.702Z,33.40
2018-11-06T14:18:42.452Z,33.80
2018-11-06T14:21:14.033Z,34.50
2018-11-06T14:23:45.283Z,34.60
2018-11-06T14:26:16.581Z,35.40
2018-11-06T14:28:47.155Z,36.20
2018-11-06T14:31:18.058Z,36.10
2018-11-06T14:33:48.895Z,36.90
2018-11-06T14:36:19.438Z,37.20
2018-11-06T14:38:50.457Z,37.60
2018-11-06T14:41:21.702Z,37.80
2018-11-06T14:43:56.611Z,38.40
2018-11-06T14:46:27.847Z,38.50
2018-11-06T14:48:59.282Z,39.00
2018-11-06T14:51:31.101Z,39.60
2018-11-06T14:54:02.030Z,39.60
2018-11-06T14:56:32.803Z,40.10
2018-11-06T14:59:03.176Z,40.60
2018-11-06T15:01:33.946Z,40.30
2018-11-06T15:04:04.198Z,40.50
2018-11-06T15:06:34.502Z,41.00
2018-11-06T15:09:07.698Z,41.60
2018-11-06T15:11:38.550Z,42.00
2018-11-06T15:14:09.263Z,42.30
2018-11-06T15:16:40.443Z,42.70
2018-11-06T15:19:10.882Z,43.00
2018-11-06T15:21:41.370Z,43.50
2018-11-06T15:24:11.858Z,43.90
2018-11-06T15:26:51.762Z,44.20
2018-11-06T15:29:23.032Z,44.80
2018-11-06T15:31:54.222Z,45.80
2018-11-06T15:34:24.783Z,46.90
2018-11-06T15:36:55.480Z,47.80
2018-11-06T15:39:26.726Z,48.60
2018-11-06T15:41:57.309Z,48.90
2018-11-06T15:44:27.733Z,49.30
2018-11-06T15:46:58.855Z,49.70
2018-11-06T15:49:31.347Z,49.90
2018-11-06T15:52:03.260Z,50.20
2018-11-06T15:54:33.789Z,50.40
2018-11-06T15:57:04.262Z,50.70
2018-11-06T15:59:38.504Z,51.00
2018-11-06T16:02:10.083Z,51.40
2018-11-06T16:04:40.571Z,52.10
2018-11-06T16:07:10.980Z,52.70
2018-11-06T16:09:41.353Z,53.10
2018-11-06T16:12:11.901Z,53.30
2018-11-06T16:14:42.226Z,53.50
2018-11-06T16:17:12.674Z,53.80
2018-11-06T16:19:42.962Z,54.00
2018-11-06T16:22:13.546Z,54.20
2018-11-06T16:24:43.880Z,54.40
2018-11-06T16:27:14.744Z,54.60
2018-11-06T16:29:46.185Z,54.70
2018-11-06T16:32:16.486Z,55.10
2018-11-06T16:34:46.781Z,55.00
2018-11-06T16:37:17.114Z,55.00
2018-11-06T16:39:47.729Z,55.50
2018-11-06T16:42:18.345Z,55.80
2018-11-06T16:44:49.296Z,56.30
2018-11-06T16:47:19.829Z,56.50
2018-11-06T16:49:50.446Z,56.60
2018-11-06T16:52:21.046Z,56.70
2018-11-06T16:54:51.890Z,56.60
2018-11-06T16:57:22.423Z,56.90
2018-11-06T16:59:54.643Z,56.90
2018-11-06T17:02:26.233Z,56.80
2018-11-06T17:04:59.875Z,57.10
2018-11-06T17:07:32.146Z,57.40
2018-11-06T17:10:03.858Z,57.60
2018-11-06T17:12:35.236Z,57.70
2018-11-06T17:15:10.202Z,58.00
2018-11-06T17:17:43.827Z,58.00
2018-11-06T17:20:21.491Z,58.00
2018-11-06T17:22:56.427Z,58.10
2018-11-06T17:25:30.012Z,58.10
2018-11-06T17:28:00.862Z,58.30
2018-11-06T17:30:31.526Z,58.40
2018-11-06T17:33:03.265Z,58.50
2018-11-06T17:35:36.358Z,58.50
2018-11-06T17:38:07.923Z,58.70
2018-11-06T17:40:48.058Z,58.70
2018-11-06T17:43:22.188Z,58.70
2018-11-06T17:45:52.515Z,58.70
2018-11-06T17:48:24.624Z,58.80
2018-11-06T17:50:55.237Z,59.00
2018-11-06T17:53:25.966Z,59.00
2018-11-06T17:57:23.836Z,59.00
2018-11-06T17:59:54.481Z,59.60
2018-11-06T18:02:25.258Z,60.10
2018-11-06T18:04:57.871Z,61.90
2018-11-06T18:07:29.096Z,64.40
2018-11-06T18:09:59.542Z,66.00
2018-11-06T18:12:31.878Z,66.10
2018-11-06T18:15:05.400Z,65.70
2018-11-06T18:17:37.056Z,65.00
2018-11-06T18:20:08.766Z,64.60
2018-11-06T18:22:40.261Z,64.30
2018-11-06T18:25:11.937Z,64.00
2018-11-06T18:27:43.032Z,63.90
2018-11-06T18:30:18.239Z,63.70
2018-11-06T18:32:49.342Z,63.40
2018-11-06T18:35:20.796Z,63.20
2018-11-06T18:37:52.085Z,63.10
2018-11-06T18:40:23.053Z,63.10
2018-11-06T18:42:57.321Z,62.90
2018-11-06T18:49:15.530Z,63.00
2018-11-06T18:51:46.222Z,63.70
2018-11-06T18:54:19.151Z,64.20
2018-11-06T18:56:50.561Z,66.10
2018-11-06T19:02:36.929Z,66.90
2018-11-06T19:05:09.918Z,67.60
2018-11-06T19:07:40.838Z,67.30
2018-11-06T19:10:12.744Z,67.10
2018-11-06T19:12:43.331Z,66.30
2018-11-06T19:15:15.002Z,65.70
2018-11-06T19:17:46.082Z,65.10
2018-11-06T19:20:16.634Z,64.40
2018-11-06T19:22:47.477Z,63.80
2018-11-06T19:25:17.845Z,63.10
2018-11-06T19:27:48.562Z,62.90
2018-11-06T19:30:19.874Z,62.40
2018-11-06T19:32:50.410Z,62.20
2018-11-06T19:35:20.712Z,61.90
2018-11-06T19:37:52.697Z,61.60
2018-11-06T19:40:23.649Z,61.40
2018-11-06T19:42:55.856Z,60.70
2018-11-06T19:45:26.366Z,60.30
2018-11-06T19:47:57.040Z,60.20
2018-11-06T19:50:29.330Z,59.80
2018-11-06T19:52:59.847Z,59.40
2018-11-06T19:55:30.159Z,59.90
2018-11-06T19:58:00.905Z,59.80
2018-11-06T20:00:31.352Z,59.40
2018-11-06T20:03:01.760Z,59.40
2018-11-06T20:10:20.130Z,58.70
2018-11-06T20:12:51.609Z,59.30
2018-11-06T20:15:26.149Z,59.20
2018-11-06T20:17:56.717Z,59.00
2018-11-06T20:20:28.245Z,58.80
2018-11-06T20:22:58.770Z,58.60
2018-11-06T20:25:29.306Z,58.50
2018-11-06T20:27:59.842Z,57.90
2018-11-06T20:30:30.242Z,57.80
2018-11-06T20:33:00.764Z,57.70
2018-11-06T20:35:31.121Z,57.70
2018-11-06T20:38:01.651Z,57.90
2018-11-06T20:40:33.346Z,58.00
2018-11-06T20:43:04.072Z,57.60
2018-11-06T20:45:34.334Z,57.60
2018-11-06T20:48:05.773Z,57.20
2018-11-06T20:50:36.128Z,57.10
2018-11-06T20:53:07.639Z,57.00
2018-11-06T20:55:38.060Z,57.00
2018-11-06T20:58:08.497Z,57.00
2018-11-06T21:00:39.510Z,57.00
2018-11-06T21:03:10.264Z,57.10
2018-11-06T21:05:40.643Z,57.50
2018-11-06T21:08:11.190Z,57.50
2018-11-06T21:10:41.917Z,57.60
2018-11-06T21:13:12.440Z,57.50
2018-11-06T21:15:42.826Z,57.40
2018-11-06T21:18:13.288Z,57.40
2018-11-06T21:20:44.015Z,57.40
2018-11-06T21:23:14.691Z,57.30
2018-11-06T21:25:46.901Z,57.40
2018-11-06T21:28:17.306Z,57.50
2018-11-06T21:30:48.462Z,58.20
2018-11-06T21:33:19.398Z,57.70
2018-11-06T21:35:50.018Z,57.80
2018-11-06T21:38:21.877Z,57.80
2018-11-06T21:40:52.250Z,58.20
2018-11-06T21:43:22.681Z,58.10
2018-11-06T21:45:54.636Z,58.00
2018-11-06T21:48:25.993Z,58.00
2018-11-06T21:50:57.719Z,57.80
2018-11-06T21:53:30.787Z,57.80
2018-11-06T21:56:03.290Z,57.60
2018-11-06T21:58:34.682Z,57.50
2018-11-06T22:01:05.243Z,57.40
2018-11-06T22:03:35.884Z,57.00
2018-11-06T22:06:06.755Z,57.00
2018-11-06T22:08:37.587Z,57.00
2018-11-06T22:11:10.102Z,56.90
2018-11-06T22:13:41.529Z,56.70
2018-11-06T22:16:11.903Z,56.50
2018-11-06T22:18:43.615Z,56.60
2018-11-06T22:21:13.942Z,57.30
2018-11-06T22:23:46.969Z,57.90
2018-11-06T22:26:19.203Z,58.70
2018-11-06T22:28:50.010Z,59.40
2018-11-06T22:31:24.847Z,60.20
2018-11-06T22:36:59.905Z,61.40
2018-11-06T22:39:51.767Z,61.50
2018-11-06T22:42:26.724Z,61.90
2018-11-06T22:45:01.069Z,62.10
2018-11-06T22:47:47.391Z,62.00
2018-11-06T22:50:19.312Z,61.90
2018-11-06T22:52:52.041Z,62.00
2018-11-06T22:55:22.606Z,61.80
2018-11-06T22:57:53.145Z,61.40
2018-11-06T23:00:29.035Z,61.20
2018-11-06T23:02:59.606Z,60.90
2018-11-06T23:05:30.161Z,60.70
2018-11-06T23:08:06.985Z,60.50
2018-11-06T23:10:37.626Z,60.50
2018-11-06T23:13:08.234Z,60.10
2018-11-06T23:15:38.585Z,60.00
2018-11-06T23:18:09.479Z,59.80
2018-11-06T23:20:39.932Z,59.60
2018-11-06T23:23:10.430Z,59.50
2018-11-06T23:25:40.989Z,59.30
2018-11-06T23:28:11.345Z,59.10
2018-11-06T23:30:42.077Z,59.10
2018-11-06T23:33:12.518Z,59.10
2018-11-06T23:35:42.947Z,59.00
2018-11-06T23:38:13.262Z,58.60
2018-11-06T23:40:43.600Z,59.70
2018-11-06T23:43:13.948Z,59.10
2018-11-06T23:45:44.354Z,59.20
2018-11-06T23:48:14.774Z,58.90
2018-11-06T23:50:45.144Z,59.10
2018-11-06T23:53:15.737Z,59.20
2018-11-06T23:55:46.054Z,59.30
2018-11-06T23:58:16.401Z,59.30
